Main page
METAR-TAF:

METAR-TAF

Airports :

Lima Allen County Airport

Lima, Ohio, United States

latitude: 40-42-29N, longitude: 084-01-17W, elevation: 974 ft

Current weather observation

The report was made 15 minutes ago, at 22:53 UTC
Wind 31 mph from the West/Northwest with gusts up to 46 mph
Temperature 55°F
Humidity 54%
Pressure 29.75 in. Hg
Visibility: 10 miles
Few clouds at a height of 4900 ft

METAR: KAOH 122253Z AUTO 30027G40KT 10SM FEW049 13/04 A2975 RMK AO2 PK WND 30041/2227 SLP076 T01280044

Time: 19:08 (23:08 UTC)


TAF: missing

Weather observations and forecasts of more than 4000 airports (METAR and TAF reports).

The available stations are represented by yellow and red dots on the map.

Hover mouse over dot to see the name of the station.

Then click to see weather observations and forecasts.

To change the map : click on the green buttons with a black cross to zoom in, on the green button with a dash to zoom out, or on the green arrows for adjacent maps.


METAR-TAF: